Decoded Metar for ETSB (BUECHEL in GERMANY) (IATA:N/A) | Meteo·Mobile Aviation Weather
aviador You're here:

ETSB Decoded Metar

BUECHEL in GERMANY
Report Time2018-08-19 03:20:00
UTC Time2018-08-19 04:28:25
Flight Rules Old
Wind310° at 03 kt
W.Decomp.*RWY 03: 0.5 kt HW 3 kt LCW
W.Rank310° ranks 23
Current wind is below 310° avg. (6.0)
Visibility5000 m
Phenomena:N/A
Clouds:N/A
Expected CloudBase > 800 ft AGL from Temp-Dew spread
CeilingNone
Temp13°C (ISA +1)
Dew Point11°C (88% RH)
AAT12.3°C
QNH1023 hPa
Density Alt1,578 ft
Elevation1,594 ft
Report Wrong Elevation
Raw Report
METAR ETSB 190320Z AUTO 31003KT 5000 // ////// 13/11 Q1023 ///=

Extra information for ETSB:More info

Metar Taf Metar & Taf Last 4 Metars F.Rules Stats Wind Profile Meteogram Temp Stats Airport Information Weather charts Add Link Nearby VenuesMetar ALERT Operation Metar Decoded Social comments